sensor_id;sensor_type;location;lat;lon;timestamp;pressure;altitude;pressure_sealevel;temperature;humidity
20027;BME280;10174;42.688;23.344;2022-11-12T00:00:29;96692.91;;;8.76;86.99
20027;BME280;10174;42.688;23.344;2022-11-12T00:02:55;96680.53;;;8.74;87.21
20027;BME280;10174;42.688;23.344;2022-11-12T00:05:20;96696.94;;;8.85;87.78
20027;BME280;10174;42.688;23.344;2022-11-12T00:07:45;96696.13;;;8.84;87.55
20027;BME280;10174;42.688;23.344;2022-11-12T00:10:11;96699.06;;;8.76;87.98
20027;BME280;10174;42.688;23.344;2022-11-12T00:12:36;96574.31;;;7.98;86.38
20027;BME280;10174;42.688;23.344;2022-11-12T00:15:02;96676.53;;;8.59;84.86
20027;BME280;10174;42.688;23.344;2022-11-12T00:17:28;96678.59;;;8.56;84.76
20027;BME280;10174;42.688;23.344;2022-11-12T00:19:53;96685.56;;;8.64;84.17
20027;BME280;10174;42.688;23.344;2022-11-12T00:22:19;96671.56;;;8.62;84.62
20027;BME280;10174;42.688;23.344;2022-11-12T00:24:45;96679.72;;;8.74;84.46
20027;BME280;10174;42.688;23.344;2022-11-12T00:27:10;96589.81;;;8.21;84.25
20027;BME280;10174;42.688;23.344;2022-11-12T00:29:36;96688.91;;;8.85;84.14
20027;BME280;10174;42.688;23.344;2022-11-12T00:32:06;96691.09;;;8.95;85.08
20027;BME280;10174;42.688;23.344;2022-11-12T00:34:32;96687.38;;;8.96;85.37
20027;BME280;10174;42.688;23.344;2022-11-12T00:36:58;96592.41;;;8.34;85.34
20027;BME280;10174;42.688;23.344;2022-11-12T00:39:23;96676.75;;;8.82;85.60
20027;BME280;10174;42.688;23.344;2022-11-12T00:41:49;96663.91;;;8.66;86.21
20027;BME280;10174;42.688;23.344;2022-11-12T00:44:14;96701.94;;;8.81;86.69
20027;BME280;10174;42.688;23.344;2022-11-12T00:46:40;96696.59;;;8.74;86.71
20027;BME280;10174;42.688;23.344;2022-11-12T00:49:05;96700.66;;;8.84;85.52
20027;BME280;10174;42.688;23.344;2022-11-12T00:51:31;96669.06;;;8.67;85.39
20027;BME280;10174;42.688;23.344;2022-11-12T00:53:56;96633.69;;;8.52;85.08
20027;BME280;10174;42.688;23.344;2022-11-12T00:56:22;96654.78;;;8.73;84.38
20027;BME280;10174;42.688;23.344;2022-11-12T00:58:47;96688.25;;;8.89;85.69
20027;BME280;10174;42.688;23.344;2022-11-12T01:01:14;96643.44;;;8.71;85.46
20027;BME280;10174;42.688;23.344;2022-11-12T01:03:40;96566.34;;;8.23;84.93
20027;BME280;10174;42.688;23.344;2022-11-12T01:06:09;96631.22;;;8.57;85.69
20027;BME280;10174;42.688;23.344;2022-11-12T01:08:35;96582.09;;;8.06;86.46
20027;BME280;10174;42.688;23.344;2022-11-12T01:11:12;96659.75;;;8.45;86.59
20027;BME280;10174;42.688;23.344;2022-11-12T01:13:39;96679.44;;;8.57;86.97
20027;BME280;10174;42.688;23.344;2022-11-12T01:16:10;96646.13;;;8.39;87.48
20027;BME280;10174;42.688;23.344;2022-11-12T01:18:36;96576.44;;;7.89;87.56
20027;BME280;10174;42.688;23.344;2022-11-12T01:21:03;96663.38;;;8.50;87.74
20027;BME280;10174;42.688;23.344;2022-11-12T01:23:31;96567.97;;;7.92;87.22
20027;BME280;10174;42.688;23.344;2022-11-12T01:25:57;96649.44;;;8.42;87.32
20027;BME280;10174;42.688;23.344;2022-11-12T01:28:22;96681.06;;;8.58;87.28
20027;BME280;10174;42.688;23.344;2022-11-12T01:30:48;96670.97;;;8.60;87.50
20027;BME280;10174;42.688;23.344;2022-11-12T01:33:13;96657.00;;;8.51;86.95
20027;BME280;10174;42.688;23.344;2022-11-12T01:35:38;96662.72;;;8.55;84.88
20027;BME280;10174;42.688;23.344;2022-11-12T01:38:04;96559.06;;;7.98;83.54
20027;BME280;10174;42.688;23.344;2022-11-12T01:40:31;96657.78;;;8.59;82.69
20027;BME280;10174;42.688;23.344;2022-11-12T01:42:56;96541.13;;;8.06;83.92
20027;BME280;10174;42.688;23.344;2022-11-12T01:45:22;96641.69;;;8.84;84.86
20027;BME280;10174;42.688;23.344;2022-11-12T01:47:49;96598.00;;;8.58;84.64
20027;BME280;10174;42.688;23.344;2022-11-12T01:50:23;96642.72;;;8.64;86.44
20027;BME280;10174;42.688;23.344;2022-11-12T01:53:12;96651.94;;;8.68;86.69
20027;BME280;10174;42.688;23.344;2022-11-12T01:55:39;96658.94;;;8.69;87.12
20027;BME280;10174;42.688;23.344;2022-11-12T01:58:09;96574.97;;;8.25;86.85
20027;BME280;10174;42.688;23.344;2022-11-12T02:00:35;96641.06;;;8.63;86.34
20027;BME280;10174;42.688;23.344;2022-11-12T02:03:03;96646.63;;;8.87;84.81
20027;BME280;10174;42.688;23.344;2022-11-12T02:05:30;96610.50;;;8.71;85.13
20027;BME280;10174;42.688;23.344;2022-11-12T02:07:57;96644.56;;;8.89;85.01
20027;BME280;10174;42.688;23.344;2022-11-12T02:10:24;96647.63;;;8.67;86.42
20027;BME280;10174;42.688;23.344;2022-11-12T02:12:51;96654.69;;;8.55;87.43
20027;BME280;10174;42.688;23.344;2022-11-12T02:15:36;96642.38;;;8.54;87.15
20027;BME280;10174;42.688;23.344;2022-11-12T02:18:02;96659.25;;;8.54;85.33
20027;BME280;10174;42.688;23.344;2022-11-12T02:20:32;96649.56;;;8.53;83.86
20027;BME280;10174;42.688;23.344;2022-11-12T02:22:58;96654.25;;;8.58;83.66
20027;BME280;10174;42.688;23.344;2022-11-12T02:25:24;96660.94;;;8.49;85.81
20027;BME280;10174;42.688;23.344;2022-11-12T02:27:51;96662.41;;;8.45;86.34
20027;BME280;10174;42.688;23.344;2022-11-12T02:30:22;96648.66;;;8.34;86.59
20027;BME280;10174;42.688;23.344;2022-11-12T02:32:55;96654.00;;;8.34;86.24
20027;BME280;10174;42.688;23.344;2022-11-12T02:35:20;96644.59;;;8.25;86.23
20027;BME280;10174;42.688;23.344;2022-11-12T02:37:46;96652.78;;;8.30;87.01
20027;BME280;10174;42.688;23.344;2022-11-12T02:40:11;96618.28;;;8.15;86.59
20027;BME280;10174;42.688;23.344;2022-11-12T02:42:36;96640.72;;;8.53;84.93
20027;BME280;10174;42.688;23.344;2022-11-12T02:45:02;96652.03;;;8.55;85.46
20027;BME280;10174;42.688;23.344;2022-11-12T02:47:27;96648.59;;;8.41;85.85
20027;BME280;10174;42.688;23.344;2022-11-12T02:49:53;96631.75;;;8.34;85.08
20027;BME280;10174;42.688;23.344;2022-11-12T02:52:18;96638.44;;;8.18;86.00
20027;BME280;10174;42.688;23.344;2022-11-12T02:54:43;96627.84;;;7.98;86.68
20027;BME280;10174;42.688;23.344;2022-11-12T02:57:09;96646.75;;;8.10;86.61
20027;BME280;10174;42.688;23.344;2022-11-12T02:59:34;96565.63;;;7.71;85.74
20027;BME280;10174;42.688;23.344;2022-11-12T03:02:00;96648.16;;;8.12;85.70
20027;BME280;10174;42.688;23.344;2022-11-12T03:04:25;96632.06;;;7.80;87.14
20027;BME280;10174;42.688;23.344;2022-11-12T03:06:50;96654.66;;;7.84;87.47
20027;BME280;10174;42.688;23.344;2022-11-12T03:09:16;96642.78;;;7.74;87.74
20027;BME280;10174;42.688;23.344;2022-11-12T03:11:41;96656.97;;;7.81;87.91
20027;BME280;10174;42.688;23.344;2022-11-12T03:14:07;96643.59;;;7.81;87.30
20027;BME280;10174;42.688;23.344;2022-11-12T03:16:33;96665.81;;;7.81;88.60
20027;BME280;10174;42.688;23.344;2022-11-12T03:18:58;96643.03;;;7.65;88.30
20027;BME280;10174;42.688;23.344;2022-11-12T03:21:23;96653.94;;;7.57;88.33
20027;BME280;10174;42.688;23.344;2022-11-12T03:23:49;96550.53;;;6.92;88.32
20027;BME280;10174;42.688;23.344;2022-11-12T03:26:14;96648.66;;;7.44;88.77
20027;BME280;10174;42.688;23.344;2022-11-12T03:28:40;96587.66;;;7.14;87.21
20027;BME280;10174;42.688;23.344;2022-11-12T03:31:05;96544.38;;;6.85;87.16
20027;BME280;10174;42.688;23.344;2022-11-12T03:33:30;96636.31;;;7.43;86.56
20027;BME280;10174;42.688;23.344;2022-11-12T03:35:56;96643.69;;;7.54;86.05
20027;BME280;10174;42.688;23.344;2022-11-12T03:38:21;96646.00;;;7.37;86.40
20027;BME280;10174;42.688;23.344;2022-11-12T03:40:47;96653.44;;;7.28;87.16
20027;BME280;10174;42.688;23.344;2022-11-12T03:43:13;96625.75;;;7.03;87.38
20027;BME280;10174;42.688;23.344;2022-11-12T03:45:38;96664.78;;;7.10;87.39
20027;BME280;10174;42.688;23.344;2022-11-12T03:48:04;96653.69;;;7.00;87.96
20027;BME280;10174;42.688;23.344;2022-11-12T03:50:29;96664.16;;;7.02;88.13
20027;BME280;10174;42.688;23.344;2022-11-12T03:52:57;96663.75;;;7.05;87.71
20027;BME280;10174;42.688;23.344;2022-11-12T03:55:24;96641.38;;;6.86;87.54
20027;BME280;10174;42.688;23.344;2022-11-12T03:57:51;96629.88;;;6.72;88.35
20027;BME280;10174;42.688;23.344;2022-11-12T04:00:18;96670.97;;;6.91;88.06
20027;BME280;10174;42.688;23.344;2022-11-12T04:02:44;96668.09;;;6.79;88.71
20027;BME280;10174;42.688;23.344;2022-11-12T04:05:10;96659.44;;;6.70;89.01
20027;BME280;10174;42.688;23.344;2022-11-12T04:08:01;96668.06;;;6.66;88.61
20027;BME280;10174;42.688;23.344;2022-11-12T04:10:45;96647.53;;;6.73;87.38
20027;BME280;10174;42.688;23.344;2022-11-12T04:13:11;96656.19;;;6.62;88.42
20027;BME280;10174;42.688;23.344;2022-11-12T04:15:58;96617.75;;;6.29;88.99
20027;BME280;10174;42.688;23.344;2022-11-12T04:18:44;96659.41;;;6.30;89.92
20027;BME280;10174;42.688;23.344;2022-11-12T04:21:34;96642.59;;;6.30;89.29
20027;BME280;10174;42.688;23.344;2022-11-12T04:26:59;96622.22;;;6.02;90.51
20027;BME280;10174;42.688;23.344;2022-11-12T04:29:25;96641.72;;;6.09;89.83
20027;BME280;10174;42.688;23.344;2022-11-12T04:32:09;96599.50;;;5.58;90.32
20027;BME280;10174;42.688;23.344;2022-11-12T04:34:34;96643.09;;;5.92;89.50
20027;BME280;10174;42.688;23.344;2022-11-12T04:37:03;96646.78;;;5.91;90.65
20027;BME280;10174;42.688;23.344;2022-11-12T04:39:29;96624.63;;;5.83;90.29
20027;BME280;10174;42.688;23.344;2022-11-12T04:41:54;96645.00;;;5.98;90.32
20027;BME280;10174;42.688;23.344;2022-11-12T04:44:38;96639.19;;;5.87;89.79
20027;BME280;10174;42.688;23.344;2022-11-12T04:47:22;96629.09;;;5.83;89.63
20027;BME280;10174;42.688;23.344;2022-11-12T04:49:48;96620.28;;;5.82;90.10
20027;BME280;10174;42.688;23.344;2022-11-12T04:52:14;96561.31;;;5.50;89.58
20027;BME280;10174;42.688;23.344;2022-11-12T04:54:40;96627.34;;;6.03;89.49
20027;BME280;10174;42.688;23.344;2022-11-12T04:57:05;96550.66;;;5.57;88.81
20027;BME280;10174;42.688;23.344;2022-11-12T04:59:30;96651.00;;;6.27;88.61
20027;BME280;10174;42.688;23.344;2022-11-12T05:01:56;96555.41;;;5.62;88.36
20027;BME280;10174;42.688;23.344;2022-11-12T05:04:21;96654.94;;;6.31;88.44
20027;BME280;10174;42.688;23.344;2022-11-12T05:06:47;96656.13;;;6.35;88.50
20027;BME280;10174;42.688;23.344;2022-11-12T05:09:20;96658.19;;;6.33;88.67
20027;BME280;10174;42.688;23.344;2022-11-12T05:11:46;96633.56;;;6.31;88.02
20027;BME280;10174;42.688;23.344;2022-11-12T05:14:12;96666.22;;;6.46;88.93
20027;BME280;10174;42.688;23.344;2022-11-12T05:16:37;96674.66;;;6.56;88.42
20027;BME280;10174;42.688;23.344;2022-11-12T05:19:03;96672.41;;;6.60;88.66
20027;BME280;10174;42.688;23.344;2022-11-12T05:21:29;96676.28;;;6.64;87.84
20027;BME280;10174;42.688;23.344;2022-11-12T05:24:13;96676.09;;;6.72;87.56
20027;BME280;10174;42.688;23.344;2022-11-12T05:26:38;96588.81;;;6.26;87.02
20027;BME280;10174;42.688;23.344;2022-11-12T05:29:04;96670.75;;;6.72;87.38
20027;BME280;10174;42.688;23.344;2022-11-12T05:31:29;96672.41;;;6.67;87.81
20027;BME280;10174;42.688;23.344;2022-11-12T05:33:55;96668.72;;;6.68;87.93
20027;BME280;10174;42.688;23.344;2022-11-12T05:36:20;96678.34;;;6.82;87.69
20027;BME280;10174;42.688;23.344;2022-11-12T05:38:46;96671.38;;;6.81;86.91
20027;BME280;10174;42.688;23.344;2022-11-12T05:41:11;96682.91;;;6.75;87.18
20027;BME280;10174;42.688;23.344;2022-11-12T05:43:37;96673.41;;;6.66;88.11
20027;BME280;10174;42.688;23.344;2022-11-12T05:46:02;96667.47;;;6.77;87.06
20027;BME280;10174;42.688;23.344;2022-11-12T05:48:28;96662.75;;;6.72;87.48
20027;BME280;10174;42.688;23.344;2022-11-12T05:50:53;96649.38;;;6.79;86.91
20027;BME280;10174;42.688;23.344;2022-11-12T05:53:19;96687.19;;;7.03;87.06
20027;BME280;10174;42.688;23.344;2022-11-12T05:55:44;96690.69;;;6.97;87.44
20027;BME280;10174;42.688;23.344;2022-11-12T05:58:09;96689.03;;;7.09;86.38
20027;BME280;10174;42.688;23.344;2022-11-12T06:00:35;96505.81;;;5.87;86.09
20027;BME280;10174;42.688;23.344;2022-11-12T06:03:10;96679.16;;;7.09;85.88
20027;BME280;10174;42.688;23.344;2022-11-12T06:05:36;96702.59;;;7.27;86.07
20027;BME280;10174;42.688;23.344;2022-11-12T06:08:03;96700.53;;;7.23;86.16
20027;BME280;10174;42.688;23.344;2022-11-12T06:10:31;96704.44;;;7.34;86.01
20027;BME280;10174;42.688;23.344;2022-11-12T06:12:57;96631.50;;;6.86;86.63
20027;BME280;10174;42.688;23.344;2022-11-12T06:15:23;96680.16;;;7.22;86.24
20027;BME280;10174;42.688;23.344;2022-11-12T06:17:52;96701.34;;;7.37;85.98
20027;BME280;10174;42.688;23.344;2022-11-12T06:20:18;96704.19;;;7.42;85.10
20027;BME280;10174;42.688;23.344;2022-11-12T06:22:44;96713.66;;;7.44;85.31
20027;BME280;10174;42.688;23.344;2022-11-12T06:25:09;96702.16;;;7.44;84.23
20027;BME280;10174;42.688;23.344;2022-11-12T06:27:35;96707.06;;;7.40;84.25
20027;BME280;10174;42.688;23.344;2022-11-12T06:30:00;96692.25;;;7.44;83.29
20027;BME280;10174;42.688;23.344;2022-11-12T06:32:26;96709.09;;;7.58;82.79
20027;BME280;10174;42.688;23.344;2022-11-12T06:34:51;96624.03;;;7.28;83.02
20027;BME280;10174;42.688;23.344;2022-11-12T06:37:18;96639.44;;;7.26;83.83
20027;BME280;10174;42.688;23.344;2022-11-12T06:39:43;96712.59;;;7.65;83.28
20027;BME280;10174;42.688;23.344;2022-11-12T06:42:09;96704.56;;;7.59;82.05
20027;BME280;10174;42.688;23.344;2022-11-12T06:44:34;96695.31;;;7.68;81.65
20027;BME280;10174;42.688;23.344;2022-11-12T06:47:00;96701.22;;;7.77;80.59
20027;BME280;10174;42.688;23.344;2022-11-12T06:49:26;96712.28;;;7.94;80.67
20027;BME280;10174;42.688;23.344;2022-11-12T06:51:51;96702.94;;;8.10;80.10
20027;BME280;10174;42.688;23.344;2022-11-12T06:54:17;96710.06;;;8.29;79.39
20027;BME280;10174;42.688;23.344;2022-11-12T06:56:42;96716.59;;;8.40;78.47
20027;BME280;10174;42.688;23.344;2022-11-12T06:59:08;96693.06;;;8.49;75.38
20027;BME280;10174;42.688;23.344;2022-11-12T07:01:33;96705.00;;;8.53;75.37
20027;BME280;10174;42.688;23.344;2022-11-12T07:03:58;96708.03;;;8.63;75.93
20027;BME280;10174;42.688;23.344;2022-11-12T07:06:24;96696.00;;;8.72;75.63
20027;BME280;10174;42.688;23.344;2022-11-12T07:08:49;96682.03;;;8.70;76.73
20027;BME280;10174;42.688;23.344;2022-11-12T07:11:16;96711.94;;;8.93;76.08
20027;BME280;10174;42.688;23.344;2022-11-12T07:13:43;96611.94;;;8.42;75.49
20027;BME280;10174;42.688;23.344;2022-11-12T07:16:09;96705.97;;;9.16;75.21
20027;BME280;10174;42.688;23.344;2022-11-12T07:18:35;96703.41;;;9.46;73.00
20027;BME280;10174;42.688;23.344;2022-11-12T07:21:10;96703.19;;;9.66;72.48
20027;BME280;10174;42.688;23.344;2022-11-12T07:23:36;96702.97;;;9.86;71.23
20027;BME280;10174;42.688;23.344;2022-11-12T07:28:29;96698.72;;;9.60;70.63
20027;BME280;10174;42.688;23.344;2022-11-12T07:30:59;96695.00;;;9.61;70.36
20027;BME280;10174;42.688;23.344;2022-11-12T07:33:26;96701.13;;;9.68;70.48
20027;BME280;10174;42.688;23.344;2022-11-12T07:36:06;96703.50;;;9.76;69.34
20027;BME280;10174;42.688;23.344;2022-11-12T07:38:34;96701.28;;;9.73;69.69
20027;BME280;10174;42.688;23.344;2022-11-12T07:41:09;96704.72;;;9.80;69.07
20027;BME280;10174;42.688;23.344;2022-11-12T07:43:36;96687.53;;;9.63;68.35
20027;BME280;10174;42.688;23.344;2022-11-12T07:46:07;96692.19;;;9.74;68.19
20027;BME280;10174;42.688;23.344;2022-11-12T07:48:33;96691.72;;;9.96;67.10
20027;BME280;10174;42.688;23.344;2022-11-12T07:51:13;96699.47;;;10.04;66.01
20027;BME280;10174;42.688;23.344;2022-11-12T07:53:39;96703.19;;;10.03;66.36
20027;BME280;10174;42.688;23.344;2022-11-12T07:56:05;96692.50;;;10.33;65.01
20027;BME280;10174;42.688;23.344;2022-11-12T07:58:32;96670.09;;;10.09;63.83
20027;BME280;10174;42.688;23.344;2022-11-12T08:01:13;96700.03;;;10.25;63.55
20027;BME280;10174;42.688;23.344;2022-11-12T08:03:43;96701.69;;;10.07;62.63
20027;BME280;10174;42.688;23.344;2022-11-12T08:06:09;96686.63;;;9.88;62.34
20027;BME280;10174;42.688;23.344;2022-11-12T08:08:34;96710.19;;;10.04;62.34
20027;BME280;10174;42.688;23.344;2022-11-12T08:10:59;96709.75;;;10.07;63.75
20027;BME280;10174;42.688;23.344;2022-11-12T08:13:25;96716.09;;;10.13;62.80
20027;BME280;10174;42.688;23.344;2022-11-12T08:15:50;96660.69;;;10.00;62.93
20027;BME280;10174;42.688;23.344;2022-11-12T08:18:16;96706.44;;;10.42;62.79
20027;BME280;10174;42.688;23.344;2022-11-12T08:20:42;96708.22;;;10.48;62.47
20027;BME280;10174;42.688;23.344;2022-11-12T08:23:08;96719.69;;;10.56;62.05
20027;BME280;10174;42.688;23.344;2022-11-12T08:25:34;96712.31;;;10.51;62.71
20027;BME280;10174;42.688;23.344;2022-11-12T08:28:00;96685.50;;;10.63;61.90
20027;BME280;10174;42.688;23.344;2022-11-12T08:30:26;96723.88;;;10.94;62.41
20027;BME280;10174;42.688;23.344;2022-11-12T08:33:00;96700.22;;;10.72;60.61
20027;BME280;10174;42.688;23.344;2022-11-12T08:35:27;96722.13;;;10.87;61.39
20027;BME280;10174;42.688;23.344;2022-11-12T08:38:00;96625.50;;;10.39;60.83
20027;BME280;10174;42.688;23.344;2022-11-12T08:40:32;96705.91;;;11.06;59.40
20027;BME280;10174;42.688;23.344;2022-11-12T08:43:05;96677.53;;;10.68;60.19
20027;BME280;10174;42.688;23.344;2022-11-12T08:45:33;96719.31;;;10.94;60.61
20027;BME280;10174;42.688;23.344;2022-11-12T08:48:00;96720.34;;;10.81;61.18
20027;BME280;10174;42.688;23.344;2022-11-12T08:50:26;96713.59;;;10.91;61.97
20027;BME280;10174;42.688;23.344;2022-11-12T08:52:52;96716.66;;;11.06;61.29
20027;BME280;10174;42.688;23.344;2022-11-12T08:55:17;96714.19;;;11.04;60.94
20027;BME280;10174;42.688;23.344;2022-11-12T08:57:43;96710.13;;;11.26;60.20
20027;BME280;10174;42.688;23.344;2022-11-12T09:00:12;96700.72;;;11.87;58.14
20027;BME280;10174;42.688;23.344;2022-11-12T09:02:38;96701.44;;;11.71;57.02
20027;BME280;10174;42.688;23.344;2022-11-12T09:05:04;96717.44;;;12.13;56.58
20027;BME280;10174;42.688;23.344;2022-11-12T09:07:30;96682.19;;;12.03;56.24
20027;BME280;10174;42.688;23.344;2022-11-12T09:09:55;96695.41;;;12.45;56.03
20027;BME280;10174;42.688;23.344;2022-11-12T09:12:21;96709.44;;;12.76;56.09
20027;BME280;10174;42.688;23.344;2022-11-12T09:14:46;96708.31;;;12.89;52.79
20027;BME280;10174;42.688;23.344;2022-11-12T09:17:12;96696.16;;;13.03;53.76
20027;BME280;10174;42.688;23.344;2022-11-12T09:19:37;96704.81;;;13.22;52.32
20027;BME280;10174;42.688;23.344;2022-11-12T09:22:03;96706.03;;;12.97;52.91
20027;BME280;10174;42.688;23.344;2022-11-12T09:24:29;96687.00;;;13.04;52.91
20027;BME280;10174;42.688;23.344;2022-11-12T09:26:54;96711.53;;;13.03;54.40
20027;BME280;10174;42.688;23.344;2022-11-12T09:29:20;96602.44;;;12.30;51.76
20027;BME280;10174;42.688;23.344;2022-11-12T09:31:45;96717.03;;;12.62;51.48
20027;BME280;10174;42.688;23.344;2022-11-12T09:34:11;96691.44;;;12.07;53.19
20027;BME280;10174;42.688;23.344;2022-11-12T09:36:37;96702.78;;;12.09;53.41
20027;BME280;10174;42.688;23.344;2022-11-12T09:39:02;96686.44;;;11.87;52.86
20027;BME280;10174;42.688;23.344;2022-11-12T09:41:39;96720.13;;;11.89;53.77
20027;BME280;10174;42.688;23.344;2022-11-12T09:44:10;96708.69;;;11.82;53.22
20027;BME280;10174;42.688;23.344;2022-11-12T09:49:17;96722.03;;;11.77;54.58
20027;BME280;10174;42.688;23.344;2022-11-12T09:51:58;96715.22;;;11.86;54.68
20027;BME280;10174;42.688;23.344;2022-11-12T09:54:27;96632.69;;;11.28;55.67
20027;BME280;10174;42.688;23.344;2022-11-12T09:56:54;96722.03;;;12.01;53.13
20027;BME280;10174;42.688;23.344;2022-11-12T09:59:22;96650.47;;;11.29;54.55
20027;BME280;10174;42.688;23.344;2022-11-12T10:07:02;96694.66;;;11.33;54.76
20027;BME280;10174;42.688;23.344;2022-11-12T10:09:44;96605.69;;;10.87;54.66
20027;BME280;10174;42.688;23.344;2022-11-12T10:18:17;96715.28;;;11.51;55.12
20027;BME280;10174;42.688;23.344;2022-11-12T10:20:54;96713.41;;;11.28;55.87
20027;BME280;10174;42.688;23.344;2022-11-12T10:23:41;96719.84;;;11.38;56.04
20027;BME280;10174;42.688;23.344;2022-11-12T10:26:19;96723.22;;;11.34;56.12
20027;BME280;10174;42.688;23.344;2022-11-12T10:28:47;96696.56;;;11.56;54.80
20027;BME280;10174;42.688;23.344;2022-11-12T10:31:19;96700.06;;;11.33;56.42
20027;BME280;10174;42.688;23.344;2022-11-12T10:33:45;96633.75;;;11.03;56.22
20027;BME280;10174;42.688;23.344;2022-11-12T10:36:16;96722.53;;;11.50;56.50
20027;BME280;10174;42.688;23.344;2022-11-12T10:38:44;96718.09;;;11.44;57.68
20027;BME280;10174;42.688;23.344;2022-11-12T10:41:26;96701.34;;;11.18;58.74
20027;BME280;10174;42.688;23.344;2022-11-12T10:43:54;96725.09;;;11.21;58.76
20027;BME280;10174;42.688;23.344;2022-11-12T10:46:26;96716.06;;;10.92;59.46
20027;BME280;10174;42.688;23.344;2022-11-12T10:49:03;96701.00;;;10.61;59.48
20027;BME280;10174;42.688;23.344;2022-11-12T10:51:39;96718.22;;;10.72;59.80
20027;BME280;10174;42.688;23.344;2022-11-12T10:54:28;96716.88;;;10.93;59.75
20027;BME280;10174;42.688;23.344;2022-11-12T10:56:53;96711.28;;;11.06;60.52
20027;BME280;10174;42.688;23.344;2022-11-12T10:59:20;96716.91;;;11.16;59.85
20027;BME280;10174;42.688;23.344;2022-11-12T11:01:54;96722.97;;;11.23;60.24
20027;BME280;10174;42.688;23.344;2022-11-12T11:04:31;96712.34;;;11.40;59.85
20027;BME280;10174;42.688;23.344;2022-11-12T11:07:06;96718.31;;;11.31;58.36
20027;BME280;10174;42.688;23.344;2022-11-12T11:09:51;96713.19;;;11.53;59.16
20027;BME280;10174;42.688;23.344;2022-11-12T11:12:31;96698.19;;;11.33;60.06
20027;BME280;10174;42.688;23.344;2022-11-12T11:15:17;96689.19;;;11.39;59.24
20027;BME280;10174;42.688;23.344;2022-11-12T11:17:43;96674.50;;;11.71;57.77
20027;BME280;10174;42.688;23.344;2022-11-12T11:20:24;96683.63;;;11.93;56.69
20027;BME280;10174;42.688;23.344;2022-11-12T11:23:02;96703.75;;;12.03;57.09
20027;BME280;10174;42.688;23.344;2022-11-12T11:25:28;96706.72;;;11.77;58.31
20027;BME280;10174;42.688;23.344;2022-11-12T11:28:38;96700.59;;;11.94;58.93
20027;BME280;10174;42.688;23.344;2022-11-12T11:34:20;96714.25;;;12.16;58.04
20027;BME280;10174;42.688;23.344;2022-11-12T11:41:46;96707.84;;;12.05;57.18
20027;BME280;10174;42.688;23.344;2022-11-12T11:44:50;96667.03;;;11.73;58.88
20027;BME280;10174;42.688;23.344;2022-11-12T11:47:40;96709.63;;;12.00;58.14
20027;BME280;10174;42.688;23.344;2022-11-12T11:50:26;96704.69;;;11.97;58.08
20027;BME280;10174;42.688;23.344;2022-11-12T11:55:53;96708.47;;;11.60;59.30
20027;BME280;10174;42.688;23.344;2022-11-12T11:58:52;96705.31;;;11.63;59.44
20027;BME280;10174;42.688;23.344;2022-11-12T12:06:51;96706.84;;;11.47;59.36
20027;BME280;10174;42.688;23.344;2022-11-12T12:09:47;96710.00;;;11.44;59.87
20027;BME280;10174;42.688;23.344;2022-11-12T12:22:56;96676.28;;;10.82;63.24
20027;BME280;10174;42.688;23.344;2022-11-12T12:25:30;96675.38;;;10.46;63.80
20027;BME280;10174;42.688;23.344;2022-11-12T12:28:04;96695.59;;;10.49;64.84
20027;BME280;10174;42.688;23.344;2022-11-12T12:30:35;96674.66;;;10.39;65.43
20027;BME280;10174;42.688;23.344;2022-11-12T12:33:50;96692.25;;;10.54;64.82
20027;BME280;10174;42.688;23.344;2022-11-12T12:36:24;96697.47;;;10.48;64.45
20027;BME280;10174;42.688;23.344;2022-11-12T12:41:41;96696.88;;;10.46;64.55
20027;BME280;10174;42.688;23.344;2022-11-12T12:44:09;96680.03;;;10.39;64.06
20027;BME280;10174;42.688;23.344;2022-11-12T12:46:47;96674.53;;;10.46;64.35
20027;BME280;10174;42.688;23.344;2022-11-12T12:49:22;96663.94;;;10.51;64.20
20027;BME280;10174;42.688;23.344;2022-11-12T12:51:52;96697.69;;;11.01;63.57
20027;BME280;10174;42.688;23.344;2022-11-12T13:00:24;96693.25;;;10.95;64.91
20027;BME280;10174;42.688;23.344;2022-11-12T13:02:51;96655.47;;;10.66;65.60
20027;BME280;10174;42.688;23.344;2022-11-12T13:05:28;96629.03;;;10.51;65.66
20027;BME280;10174;42.688;23.344;2022-11-12T13:07:57;96685.88;;;10.90;65.94
20027;BME280;10174;42.688;23.344;2022-11-12T13:10:52;96703.31;;;10.87;66.79
20027;BME280;10174;42.688;23.344;2022-11-12T13:15:48;96709.22;;;10.36;67.50
20027;BME280;10174;42.688;23.344;2022-11-12T13:21:18;96707.97;;;10.50;70.19
20027;BME280;10174;42.688;23.344;2022-11-12T13:31:48;96703.31;;;10.27;72.94
20027;BME280;10174;42.688;23.344;2022-11-12T13:34:22;96719.59;;;10.13;73.91
20027;BME280;10174;42.688;23.344;2022-11-12T13:36:55;96718.78;;;10.13;72.98
20027;BME280;10174;42.688;23.344;2022-11-12T13:39:22;96627.53;;;9.57;73.62
20027;BME280;10174;42.688;23.344;2022-11-12T13:41:58;96710.66;;;10.01;74.25
20027;BME280;10174;42.688;23.344;2022-11-12T13:44:42;96705.13;;;10.14;73.82
20027;BME280;10174;42.688;23.344;2022-11-12T13:47:27;96688.06;;;9.90;73.87
20027;BME280;10174;42.688;23.344;2022-11-12T13:49:54;96711.00;;;10.05;74.25
20027;BME280;10174;42.688;23.344;2022-11-12T13:52:23;96717.22;;;10.05;74.97
20027;BME280;10174;42.688;23.344;2022-11-12T13:55:12;96716.78;;;10.08;74.76
20027;BME280;10174;42.688;23.344;2022-11-12T13:57:38;96707.50;;;10.04;74.94
20027;BME280;10174;42.688;23.344;2022-11-12T14:02:32;96681.28;;;10.06;74.64
20027;BME280;10174;42.688;23.344;2022-11-12T14:04:58;96551.06;;;9.18;74.15
20027;BME280;10174;42.688;23.344;2022-11-12T14:22:19;96641.88;;;9.70;73.27
20027;BME280;10174;42.688;23.344;2022-11-12T14:24:49;96700.38;;;9.98;73.85
20027;BME280;10174;42.688;23.344;2022-11-12T14:27:46;96698.72;;;9.97;74.15
20027;BME280;10174;42.688;23.344;2022-11-12T14:30:28;96698.91;;;9.84;73.98
20027;BME280;10174;42.688;23.344;2022-11-12T14:33:09;96709.19;;;9.87;75.52
20027;BME280;10174;42.688;23.344;2022-11-12T14:35:36;96705.75;;;9.79;74.93